Time;durP1;ratioP1;P1;durP2;ratioP2;P2;SDS_P1;SDS_P2;PMS_P1;PMS_P2;Temp;Humidity;BMP_temperature;BMP_pressure;BME280_temperature;BME280_humidity;BME280_pressure;Samples;Min_cycle;Max_cycle;Signal;HPM_P1;HPM_P2
2022/11/20 00:08:15;;;;;;;0.52;0.52;;;;;;;4.92;62.04;100286.69;18422103;32;20097;-59
2022/11/20 00:18:18;;;;;;;1.15;1.15;;;;;;;4.82;62.47;100241.66;18435299;32;20119;-59
2022/11/20 00:28:22;;;;;;;1.20;1.20;;;;;;;4.95;61.93;100253.09;18434951;32;20103;-60
2022/11/20 00:38:25;;;;;;;0.90;0.90;;;;;;;4.98;61.88;100237.66;18435453;32;20092;-60
2022/11/20 00:48:30;;;;;;;1.48;1.40;;;;;;;4.95;62.20;100241.91;18434083;32;20341;-60
2022/11/20 00:58:35;;;;;;;0.82;0.82;;;;;;;5.13;61.89;100265.50;18434523;32;20113;-59
2022/11/20 01:08:40;;;;;;;0.70;0.70;;;;;;;4.91;62.30;100263.34;18433702;32;20105;-60
2022/11/20 01:18:44;;;;;;;0.77;0.77;;;;;;;5.03;62.64;100254.97;18433828;32;20136;-60
2022/11/20 01:28:49;;;;;;;0.80;0.80;;;;;;;5.20;62.09;100263.91;18434361;32;20389;-59
2022/11/20 01:38:53;;;;;;;1.35;1.17;;;;;;;5.07;62.48;100252.47;18433015;32;20124;-59
2022/11/20 01:49:00;;;;;;;1.15;1.08;;;;;;;4.82;63.76;100244.22;18433640;32;20089;-59
2022/11/20 01:59:05;;;;;;;1.42;1.37;;;;;;;4.91;63.90;100221.97;18432330;32;20492;-59
2022/11/20 02:09:10;;;;;;;1.55;1.35;;;;;;;4.54;65.25;100214.41;18431995;32;20111;-60
2022/11/20 02:19:20;;;;;;;1.58;1.48;;;;;;;4.68;64.57;100206.91;18430521;32;20105;-59
2022/11/20 02:29:28;;;;;;;1.07;1.07;;;;;;;4.85;64.00;100197.75;18431169;32;20118;-59
2022/11/20 02:39:31;;;;;;;0.70;0.70;;;;;;;5.06;62.99;100191.22;18430626;32;20177;-60
2022/11/20 02:49:35;;;;;;;2.40;2.08;;;;;;;3.92;65.97;100195.94;18429417;32;20115;-59
2022/11/20 02:59:38;;;;;;;1.73;1.60;;;;;;;3.36;68.19;100179.19;18430527;32;20097;-59
2022/11/20 03:09:43;;;;;;;1.85;1.67;;;;;;;3.22;68.78;100194.34;18428918;32;20115;-59
2022/11/20 03:19:46;;;;;;;1.67;1.60;;;;;;;3.29;68.35;100180.75;18429506;32;20105;-60
2022/11/20 03:29:50;;;;;;;0.62;0.62;;;;;;;4.37;65.63;100175.31;18435328;32;20097;-59
2022/11/20 03:39:53;;;;;;;0.60;0.60;;;;;;;4.02;65.79;100196.97;18436303;32;20359;-60
2022/11/20 03:49:58;;;;;;;0.90;0.90;;;;;;;4.64;64.49;100207.69;18436288;32;20106;-60
2022/11/20 04:00:01;;;;;;;0.93;0.93;;;;;;;4.98;63.21;100183.31;18436169;32;20162;-60
2022/11/20 04:10:07;;;;;;;0.88;0.88;;;;;;;5.02;62.86;100179.03;18435454;32;20093;-60
2022/11/20 04:20:11;;;;;;;1.25;1.15;;;;;;;5.22;61.97;100176.81;18435440;32;20751;-59
2022/11/20 04:30:16;;;;;;;1.05;1.05;;;;;;;4.86;62.37;100154.63;18434346;32;20191;-60
2022/11/20 04:40:19;;;;;;;1.37;1.30;;;;;;;5.32;61.34;100151.94;18434652;32;20097;-60
2022/11/20 04:50:23;;;;;;;0.50;0.50;;;;;;;5.35;61.33;100136.44;18435275;32;20123;-59
2022/11/20 05:00:26;;;;;;;1.25;1.15;;;;;;;5.28;61.23;100124.25;18434327;32;20115;-59
2022/11/20 05:10:31;;;;;;;0.70;0.70;;;;;;;5.13;61.56;100119.72;18431576;32;20369;-60
2022/11/20 05:20:36;;;;;;;1.52;1.42;;;;;;;5.44;61.02;100108.97;18430301;32;20654;-60
2022/11/20 05:30:40;;;;;;;1.02;1.02;;;;;;;5.39;60.73;100106.31;18429930;32;20438;-60
2022/11/20 05:40:43;;;;;;;0.85;0.85;;;;;;;5.53;61.26;100107.34;18431204;32;20119;-60
2022/11/20 05:50:48;;;;;;;0.90;0.90;;;;;;;5.08;61.29;100091.19;18429460;32;20109;-60
2022/11/20 06:00:51;;;;;;;0.50;0.50;;;;;;;5.43;60.84;100094.28;18413114;32;20083;-60
2022/11/20 06:10:56;;;;;;;0.68;0.68;;;;;;;5.51;61.47;100115.97;18431483;32;20111;-60
2022/11/20 06:21:04;;;;;;;0.95;0.95;;;;;;;5.46;61.15;100125.37;18431758;32;20115;-59
2022/11/20 06:31:10;;;;;;;0.70;0.70;;;;;;;5.03;61.06;100129.06;18430651;32;20342;-59
2022/11/20 06:41:16;;;;;;;1.90;1.80;;;;;;;5.10;61.11;100125.72;18430010;32;20115;-60
2022/11/20 06:51:21;;;;;;;0.60;0.60;;;;;;;5.36;61.30;100125.25;18431059;32;20120;-60
2022/11/20 07:01:24;;;;;;;0.70;0.70;;;;;;;5.49;59.71;100138.34;18434602;32;20113;-60
2022/11/20 07:11:28;;;;;;;1.30;1.20;;;;;;;5.77;59.32;100172.41;18438083;32;20404;-60
2022/11/20 07:21:32;;;;;;;1.05;1.00;;;;;;;5.79;60.17;100165.56;18437022;32;20465;-60
2022/11/20 07:31:36;;;;;;;0.73;0.73;;;;;;;5.85;60.78;100164.78;18435787;32;20136;-59
2022/11/20 07:41:39;;;;;;;0.73;0.73;;;;;;;6.02;61.28;100150.31;18436248;32;20191;-60
2022/11/20 07:51:44;;;;;;;0.70;0.70;;;;;;;6.06;60.91;100174.56;18434930;32;20097;-60
2022/11/20 08:01:52;;;;;;;1.17;1.10;;;;;;;6.33;60.62;100165.38;18435865;32;20089;-60
2022/11/20 08:22:17;;;;;;;0.40;0.40;;;;;;;5.75;58.51;100159.47;18434828;32;20089;-60
2022/11/20 08:32:21;;;;;;;0.60;0.60;;;;;;;5.68;57.61;100166.25;18434963;32;20162;-60
2022/11/20 08:42:25;;;;;;;0.60;0.60;;;;;;;6.69;56.46;100171.81;18429828;32;160633;-60
2022/11/20 08:52:29;;;;;;;0.60;0.60;;;;;;;6.40;55.36;100151.63;18433941;32;20191;-60
2022/11/20 09:02:35;;;;;;;1.67;1.58;;;;;;;6.85;55.59;100172.81;18434098;32;20101;-60
2022/11/20 09:12:40;;;;;;;0.50;0.50;;;;;;;5.85;57.23;100172.53;18433665;32;20089;-60
2022/11/20 09:22:43;;;;;;;1.10;1.00;;;;;;;7.15;55.02;100175.69;18432941;32;20436;-59
2022/11/20 09:32:47;;;;;;;0.50;0.50;;;;;;;7.12;54.38;100173.09;18432194;32;20109;-60
2022/11/20 09:42:56;;;;;;;1.02;0.90;;;;;;;7.29;55.83;100199.16;18419394;32;20503;-60
2022/11/20 09:53:12;;;;;;;1.15;1.05;;;;;;;7.50;54.64;100185.50;18432265;32;20373;-60
2022/11/20 10:03:18;;;;;;;0.55;0.55;;;;;;;7.59;54.80;100177.75;18417859;32;20097;-60
2022/11/20 10:13:34;;;;;;;1.00;1.00;;;;;;;7.38;53.94;100154.22;18431844;32;20085;-60
2022/11/20 10:24:18;;;;;;;1.23;1.10;;;;;;;7.78;53.29;100149.28;18417167;32;20110;-60
2022/11/20 10:34:25;;;;;;;1.48;0.88;;;;;;;7.97;53.52;100128.56;18429753;32;20146;-60
2022/11/20 10:55:03;;;;;;;1.55;1.45;;;;;;;8.88;52.41;100109.72;18430799;32;20097;-60
2022/11/20 11:05:15;;;;;;;3.78;2.25;;;;;;;7.96;53.25;100112.09;18427687;32;20361;-60
2022/11/20 11:15:29;;;;;;;0.65;0.65;;;;;;;7.87;55.35;100112.94;18428573;32;20099;-60
2022/11/20 11:25:34;;;;;;;1.05;1.05;;;;;;;8.70;53.33;100116.62;18428617;32;20140;-60
2022/11/20 11:35:46;;;;;;;1.23;1.05;;;;;;;8.98;52.68;100124.44;18427681;32;20097;-60
2022/11/20 11:45:55;;;;;;;0.88;0.82;;;;;;;8.87;53.09;100129.69;18429433;32;20096;-60
2022/11/20 11:56:04;;;;;;;0.60;0.60;;;;;;;9.48;51.92;100115.72;18436111;32;20118;-60
2022/11/20 12:06:11;;;;;;;0.60;0.60;;;;;;;9.34;53.16;100098.37;18435704;32;20097;-60
2022/11/20 12:16:19;;;;;;;0.50;0.50;;;;;;;10.01;52.81;100077.28;18436528;32;20084;-60
2022/11/20 12:26:32;;;;;;;0.55;0.55;;;;;;;9.61;52.76;100085.28;18434096;32;20455;-60
2022/11/20 12:36:43;;;;;;;0.50;0.50;;;;;;;10.23;52.42;100079.78;18431988;32;20148;-60
2022/11/20 12:46:48;;;;;;;0.60;0.60;;;;;;;10.43;52.31;100084.91;18403242;32;20524;-60
2022/11/20 12:56:58;;;;;;;1.27;1.20;;;;;;;10.48;52.79;100037.91;18392436;32;20089;-60
2022/11/20 13:07:09;;;;;;;0.43;0.43;;;;;;;10.45;52.13;100049.22;18433474;32;20097;-60
2022/11/20 13:17:18;;;;;;;1.95;1.85;;;;;;;10.32;52.52;100076.25;18433386;32;20108;-60
2022/11/20 13:27:23;;;;;;;0.70;0.70;;;;;;;10.45;52.18;100069.25;18474825;32;20145;-60
2022/11/20 13:37:29;;;;;;;1.80;1.73;;;;;;;10.48;51.54;100074.44;18407517;32;20101;-60
2022/11/20 13:47:34;;;;;;;2.12;1.50;;;;;;;10.54;51.05;100080.47;18420606;32;20119;-60
2022/11/20 13:58:06;;;;;;;0.62;0.62;;;;;;;10.11;51.63;100070.31;18404228;32;20112;-60
2022/11/20 14:08:15;;;;;;;2.00;1.00;;;;;;;9.89;53.11;100056.50;18373950;32;20097;-60
2022/11/20 14:18:22;;;;;;;0.70;0.70;;;;;;;9.92;53.08;100040.84;18431870;32;20361;-60
2022/11/20 14:28:27;;;;;;;1.70;1.60;;;;;;;9.76;53.78;100046.12;18411963;32;20097;-60
2022/11/20 14:38:33;;;;;;;6.28;2.12;;;;;;;9.69;54.54;100042.69;18430856;32;20109;-60
2022/11/20 14:48:40;;;;;;;0.98;0.98;;;;;;;9.61;54.62;100051.41;18423594;32;20227;-60
2022/11/20 14:58:45;;;;;;;1.50;1.10;;;;;;;9.35;54.86;100071.47;18431228;32;20085;-60
2022/11/20 15:08:52;;;;;;;0.60;0.60;;;;;;;9.07;56.16;100084.53;18402681;32;20116;-60
2022/11/20 15:18:56;;;;;;;2.72;1.90;;;;;;;8.80;56.92;100077.59;18422307;32;20101;-60
2022/11/20 15:29:00;;;;;;;1.05;1.05;;;;;;;7.84;59.69;100096.47;18407098;32;20089;-60
2022/11/20 15:39:06;;;;;;;3.72;3.47;;;;;;;7.95;59.64;100099.97;18373862;32;20089;-60
2022/11/20 15:49:12;;;;;;;2.40;2.20;;;;;;;7.76;59.46;100089.50;18397378;32;20089;-60
2022/11/20 15:59:17;;;;;;;3.30;2.15;;;;;;;7.34;60.32;100099.66;18413530;32;20116;-60
2022/11/20 16:09:20;;;;;;;2.37;1.55;;;;;;;7.11;61.77;100093.44;18434025;32;20089;-60
2022/11/20 16:19:25;;;;;;;1.05;1.02;;;;;;;7.01;61.51;100085.59;18429974;32;20511;-60
2022/11/20 16:29:28;;;;;;;0.93;0.93;;;;;;;6.55;61.90;100091.28;18426273;32;20111;-60
2022/11/20 16:39:34;;;;;;;1.40;1.23;;;;;;;6.72;61.26;100093.16;18404772;32;20116;-60
2022/11/20 16:49:38;;;;;;;0.75;0.75;;;;;;;6.31;62.06;100094.50;18405898;32;20143;-60
2022/11/20 16:59:46;;;;;;;2.55;1.17;;;;;;;6.09;61.55;100099.47;18411144;32;20355;-60
2022/11/20 17:09:50;;;;;;;2.30;2.20;;;;;;;5.90;61.70;100088.84;18408093;32;20136;-59
2022/11/20 17:19:55;;;;;;;2.28;2.17;;;;;;;5.62;62.18;100079.84;18372531;32;20113;-59
2022/11/20 17:29:58;;;;;;;0.68;0.68;;;;;;;4.89;63.63;100064.19;18423112;32;20097;-60
2022/11/20 17:40:04;;;;;;;1.00;1.00;;;;;;;5.12;62.41;100046.41;18420269;32;20085;-60
2022/11/20 17:50:09;;;;;;;1.48;1.40;;;;;;;4.83;62.84;100059.75;18418970;32;20120;-59
2022/11/20 18:00:16;;;;;;;4.80;4.50;;;;;;;4.77;62.90;100064.84;18430015;32;20450;-60
2022/11/20 18:10:19;;;;;;;2.15;2.05;;;;;;;4.63;63.16;100054.28;18426075;32;20097;-60
2022/11/20 18:20:24;;;;;;;0.93;0.93;;;;;;;4.48;63.51;100048.84;18431243;32;20150;-59
2022/11/20 18:30:36;;;;;;;1.65;1.58;;;;;;;4.23;63.43;100046.69;18430887;32;20092;-59
2022/11/20 18:40:41;;;;;;;1.45;1.30;;;;;;;4.20;63.36;100067.31;18416549;32;20136;-59
2022/11/20 18:50:44;;;;;;;1.25;1.20;;;;;;;3.95;63.64;100095.25;18429610;32;20118;-59
2022/11/20 19:00:49;;;;;;;0.95;0.95;;;;;;;3.79;64.07;100101.81;18429792;32;20114;-59
2022/11/20 19:10:52;;;;;;;1.85;1.70;;;;;;;3.79;63.86;100121.59;18389443;32;20093;-59
2022/11/20 19:20:57;;;;;;;0.70;0.70;;;;;;;3.61;63.74;100116.09;18391665;32;20093;-59
2022/11/20 19:31:03;;;;;;;4.40;4.10;;;;;;;3.43;64.07;100126.88;18427778;32;20448;-59
2022/11/20 19:41:08;;;;;;;1.17;1.17;;;;;;;3.44;64.28;100112.25;18412629;32;20471;-59
2022/11/20 19:51:13;;;;;;;0.60;0.60;;;;;;;3.26;64.10;100133.38;18426831;32;20077;-59
2022/11/20 20:01:19;;;;;;;1.10;1.08;;;;;;;3.23;64.00;100097.19;18411482;32;20142;-59
2022/11/20 20:11:25;;;;;;;1.80;1.70;;;;;;;3.17;64.63;100114.25;18434605;32;20168;-59
2022/11/20 20:21:31;;;;;;;2.35;2.25;;;;;;;3.05;64.85;100090.75;18431697;32;20085;-59
2022/11/20 20:31:35;;;;;;;4.07;3.85;;;;;;;3.18;64.63;100087.63;18432369;32;20484;-59
2022/11/20 20:41:40;;;;;;;19.73;7.93;;;;;;;3.11;64.87;100074.56;18433437;32;20376;-60
2022/11/20 20:51:43;;;;;;;13.52;12.73;;;;;;;3.18;65.29;100056.66;18417329;32;20202;-60
2022/11/20 21:01:48;;;;;;;3.12;2.85;;;;;;;3.32;66.00;100046.66;18431340;32;20500;-60
2022/11/20 21:11:51;;;;;;;1.50;1.50;;;;;;;3.38;64.50;100058.81;18433417;32;20097;-60
2022/11/20 21:21:59;;;;;;;2.95;2.75;;;;;;;3.39;65.12;100060.53;18432684;32;20166;-60
2022/11/20 21:32:02;;;;;;;1.67;1.58;;;;;;;3.43;65.55;100061.47;18434526;32;20104;-60
2022/11/20 21:42:06;;;;;;;2.65;1.73;;;;;;;3.64;65.74;100048.16;18433342;32;20718;-60
2022/11/20 21:52:09;;;;;;;0.70;0.70;;;;;;;3.28;65.63;100078.41;18432895;32;20365;-60
2022/11/20 22:02:14;;;;;;;9.30;8.68;;;;;;;3.27;65.45;100078.34;18432848;32;20097;-60
2022/11/20 22:12:17;;;;;;;0.80;0.80;;;;;;;3.27;65.06;100074.06;18418925;32;20097;-60
2022/11/20 22:22:21;;;;;;;1.00;1.00;;;;;;;3.22;64.49;100070.50;18431759;32;20443;-60
2022/11/20 22:32:25;;;;;;;1.35;1.35;;;;;;;3.08;65.16;100061.56;18431510;32;20105;-60
2022/11/20 22:42:29;;;;;;;2.60;2.17;;;;;;;3.12;64.95;100046.19;18430868;32;20093;-60
2022/11/20 22:52:32;;;;;;;2.35;2.25;;;;;;;2.89;64.83;100019.87;18431258;32;20093;-60
2022/11/20 23:02:37;;;;;;;1.95;1.85;;;;;;;2.95;64.15;100014.88;18429763;32;20093;-60
2022/11/20 23:12:40;;;;;;;1.87;1.70;;;;;;;2.52;66.29;100014.75;18429334;32;20088;-60
2022/11/20 23:22:44;;;;;;;1.90;1.80;;;;;;;2.69;65.18;100004.81;18428837;32;20413;-58
2022/11/20 23:32:47;;;;;;;6.22;5.72;;;;;;;2.68;65.53;99994.50;18428262;32;20112;-58
2022/11/20 23:53:13;;;;;;;2.15;2.05;;;;;;;2.67;66.94;99979.88;18436009;32;20150;-58
